Terminal Aerodrome Forecast
Issued by NWS

Home | Current Version | Previous Version | Text Only | Print | Product List | Glossary On
Versions: 1 2 3 4 5 6 7 8 9 10 11 12 13 14 15 16 17 18 19 20 21 22
000
FTUS43 KLSX 151200 AAA
TAFUIN
TAF AMD
KUIN 151247Z 1513/1612 17005KT P6SM -SHRA VCTS OVC040CB
      TEMPO 1513/1516 2SM TSRA OVC015CB
     FM151800 28008KT P6SM VCSH SCT012 OVC020
     FM152000 33011KT P6SM OVC025
     FM160200 36006KT P6SM SCT035=

USA.gov is the U.S. government's official web portal to all federal, state and local government web resources and services.